createdAt,value
2018-02-22T00:00:26.997Z,14.43
2018-02-22T00:01:00.927Z,13.13
2018-02-22T00:01:35.011Z,14.70
2018-02-22T00:02:13.706Z,14.98
2018-02-22T00:02:50.465Z,16.10
2018-02-22T00:03:24.426Z,14.90
2018-02-22T00:03:58.336Z,14.30
2018-02-22T00:04:32.258Z,15.57
2018-02-22T00:05:06.229Z,14.80
2018-02-22T00:05:40.206Z,14.82
2018-02-22T00:06:14.136Z,13.25
2018-02-22T00:06:48.070Z,16.27
2018-02-22T00:07:22.161Z,13.38
2018-02-22T00:07:56.076Z,14.43
2018-02-22T00:08:30.151Z,14.32
2018-02-22T00:09:04.066Z,14.13
2018-02-22T00:09:37.999Z,15.07
2018-02-22T00:10:11.903Z,13.70
2018-02-22T00:10:46.151Z,12.85
2018-02-22T00:11:20.223Z,13.02
2018-02-22T00:11:54.299Z,14.75
2018-02-22T00:12:28.293Z,13.13
2018-02-22T00:13:02.354Z,12.80
2018-02-22T00:13:36.297Z,13.68
2018-02-22T00:14:10.208Z,12.32
2018-02-22T00:14:44.188Z,12.77
2018-02-22T00:15:18.108Z,13.25
2018-02-22T00:15:52.023Z,14.07
2018-02-22T00:16:25.974Z,13.55
2018-02-22T00:16:59.965Z,13.00
2018-02-22T00:17:33.894Z,13.65
2018-02-22T00:18:07.905Z,13.80
2018-02-22T00:18:41.850Z,12.95
2018-02-22T00:19:15.767Z,12.95
2018-02-22T00:19:49.969Z,11.63
2018-02-22T00:20:23.967Z,13.35
2018-02-22T00:20:58.177Z,13.25
2018-02-22T00:21:32.213Z,14.10
2018-02-22T00:22:06.144Z,14.10
2018-02-22T00:22:40.065Z,14.52
2018-02-22T00:23:14.025Z,13.88
2018-02-22T00:23:47.937Z,13.57
2018-02-22T00:24:21.965Z,13.80
2018-02-22T00:24:55.891Z,13.98
2018-02-22T00:25:29.966Z,12.90
2018-02-22T00:26:03.891Z,14.98
2018-02-22T00:26:37.825Z,13.65
2018-02-22T00:27:11.925Z,12.48
2018-02-22T00:27:45.842Z,14.02
2018-02-22T00:28:19.833Z,15.00
2018-02-22T00:28:53.813Z,13.43
2018-02-22T00:29:27.756Z,15.00
2018-02-22T00:30:01.706Z,13.73
2018-02-22T00:30:35.643Z,14.18
2018-02-22T00:31:09.759Z,13.62
2018-02-22T00:31:43.677Z,13.35
2018-02-22T00:32:17.616Z,13.75
2018-02-22T00:32:51.558Z,14.25
2018-02-22T00:33:25.672Z,12.50
2018-02-22T00:33:59.610Z,13.05
2018-02-22T00:34:33.588Z,14.55
2018-02-22T00:35:07.688Z,14.30
2018-02-22T00:35:41.615Z,14.93
2018-02-22T00:36:15.690Z,14.25
2018-02-22T00:36:50.267Z,13.35
2018-02-22T00:37:24.216Z,13.07
2018-02-22T00:37:58.290Z,14.27
2018-02-22T00:38:32.288Z,13.50
2018-02-22T00:39:06.209Z,13.88
2018-02-22T00:39:40.129Z,14.20
2018-02-22T00:40:14.157Z,13.18
2018-02-22T00:40:48.082Z,13.15
2018-02-22T00:41:22.042Z,13.25
2018-02-22T00:41:55.986Z,12.70
2018-02-22T00:42:30.085Z,15.00
2018-02-22T00:43:04.035Z,12.65
2018-02-22T00:43:38.082Z,13.38
2018-02-22T00:44:12.102Z,14.38
2018-02-22T00:44:46.084Z,12.32
2018-02-22T00:45:20.017Z,13.50
2018-02-22T00:45:53.941Z,14.65
2018-02-22T00:46:27.886Z,15.13
2018-02-22T00:47:01.844Z,12.93
2018-02-22T00:47:35.843Z,13.80
2018-02-22T00:48:09.776Z,12.90
2018-02-22T00:48:43.740Z,13.98
2018-02-22T00:49:17.769Z,14.77
2018-02-22T00:49:51.835Z,14.27
2018-02-22T00:50:25.865Z,14.13
2018-02-22T00:51:00.024Z,13.60
2018-02-22T00:51:34.004Z,12.70
2018-02-22T00:52:07.987Z,13.15
2018-02-22T00:52:41.900Z,13.75
2018-02-22T00:53:15.931Z,14.35
2018-02-22T00:53:50.096Z,14.73
2018-02-22T00:54:24.069Z,13.68
2018-02-22T00:54:58.020Z,13.85
2018-02-22T00:55:32.102Z,15.13
2018-02-22T00:56:06.212Z,14.20
2018-02-22T00:56:40.118Z,14.60
2018-02-22T00:57:14.060Z,13.75
2018-02-22T00:57:47.994Z,14.32
2018-02-22T00:58:21.909Z,13.10
2018-02-22T00:58:56.009Z,14.27
2018-02-22T00:59:29.934Z,14.43
2018-02-22T01:00:03.882Z,15.40
2018-02-22T01:00:37.881Z,13.73
2018-02-22T01:01:11.819Z,13.75
2018-02-22T01:01:46.004Z,13.35
2018-02-22T01:02:19.953Z,14.02
2018-02-22T01:02:53.872Z,13.07
2018-02-22T01:03:27.767Z,14.10
2018-02-22T01:04:01.692Z,14.87
2018-02-22T01:04:35.785Z,13.55
2018-02-22T01:05:09.688Z,14.85
2018-02-22T01:05:43.677Z,13.32
2018-02-22T01:06:17.674Z,14.35
2018-02-22T01:06:51.641Z,14.77
2018-02-22T01:07:25.568Z,14.23
2018-02-22T01:07:59.515Z,13.10
2018-02-22T01:08:33.560Z,14.52
2018-02-22T01:09:07.561Z,14.10
2018-02-22T01:09:41.526Z,13.95
2018-02-22T01:10:15.440Z,13.77
2018-02-22T01:10:49.422Z,14.13
2018-02-22T01:11:23.343Z,13.90
2018-02-22T01:11:57.286Z,13.45
2018-02-22T01:12:31.864Z,13.45
2018-02-22T01:13:05.948Z,14.02
2018-02-22T01:13:39.890Z,13.95
2018-02-22T01:14:13.824Z,13.62
2018-02-22T01:14:47.755Z,14.52
2018-02-22T01:15:21.720Z,14.75
2018-02-22T01:15:55.709Z,13.90
2018-02-22T01:16:29.614Z,13.25
2018-02-22T01:17:03.598Z,14.35
2018-02-22T01:17:37.522Z,14.80
2018-02-22T01:18:11.457Z,15.05
2018-02-22T01:18:45.375Z,13.70
2018-02-22T01:19:19.354Z,13.93
2018-02-22T01:19:53.290Z,14.80
2018-02-22T01:20:27.237Z,13.88
2018-02-22T01:21:01.333Z,13.65
2018-02-22T01:21:35.280Z,14.00
2018-02-22T01:22:09.205Z,14.10
2018-02-22T01:22:43.121Z,15.05
2018-02-22T01:23:17.052Z,14.93
2018-02-22T01:23:50.974Z,15.43
2018-02-22T01:24:24.897Z,14.13
2018-02-22T01:24:58.800Z,14.00
2018-02-22T01:25:32.722Z,14.75
2018-02-22T01:26:07.685Z,14.52
2018-02-22T01:26:41.679Z,15.07
2018-02-22T01:27:15.804Z,15.15
2018-02-22T01:27:49.731Z,15.70
2018-02-22T01:28:23.652Z,16.50
2018-02-22T01:28:57.563Z,14.82
2018-02-22T01:29:31.484Z,15.23
2018-02-22T01:30:05.601Z,14.93
2018-02-22T01:30:39.660Z,14.77
2018-02-22T01:31:13.589Z,13.80
2018-02-22T01:31:47.523Z,13.48
2018-02-22T01:32:21.507Z,13.07
2018-02-22T01:32:55.412Z,14.77
2018-02-22T01:33:30.423Z,14.30
2018-02-22T01:34:04.362Z,14.95
2018-02-22T01:34:38.313Z,14.32
2018-02-22T01:35:12.392Z,14.87
2018-02-22T01:35:46.589Z,14.93
2018-02-22T01:36:20.694Z,14.23
2018-02-22T01:36:55.227Z,14.23
2018-02-22T01:37:29.236Z,13.62
2018-02-22T01:38:03.451Z,15.23
2018-02-22T01:38:37.680Z,15.35
2018-02-22T01:39:11.655Z,15.70
2018-02-22T01:39:45.638Z,15.40
2018-02-22T01:40:19.543Z,17.62
2018-02-22T01:40:53.580Z,16.02
2018-02-22T01:41:27.509Z,15.23
2018-02-22T01:42:01.495Z,14.23
2018-02-22T01:42:35.573Z,13.80
2018-02-22T01:43:09.508Z,17.35
2018-02-22T01:43:43.529Z,16.27
2018-02-22T01:44:17.444Z,16.25
2018-02-22T01:44:51.369Z,15.18
2018-02-22T01:45:25.304Z,16.65
2018-02-22T01:45:59.220Z,16.50
2018-02-22T01:46:33.183Z,14.93
2018-02-22T01:47:07.147Z,15.07
2018-02-22T01:47:41.250Z,15.10
2018-02-22T01:48:15.245Z,15.85
2018-02-22T01:48:49.170Z,14.65
2018-02-22T01:49:23.103Z,15.57
2018-02-22T01:49:57.034Z,15.10
2018-02-22T01:50:30.972Z,15.88
2018-02-22T01:51:04.968Z,14.38
2018-02-22T01:51:39.066Z,15.20
2018-02-22T01:52:12.987Z,17.37
2018-02-22T01:52:46.901Z,16.80
2018-02-22T01:53:20.811Z,15.88
2018-02-22T01:53:54.809Z,16.52
2018-02-22T01:54:28.715Z,16.58
2018-02-22T01:55:02.621Z,15.82
2018-02-22T01:55:36.532Z,16.80
2018-02-22T01:56:10.458Z,16.40
2018-02-22T01:56:44.385Z,16.42
2018-02-22T01:57:18.304Z,15.77
2018-02-22T01:57:52.265Z,16.42
2018-02-22T01:58:26.215Z,16.10
2018-02-22T01:59:00.150Z,17.02
2018-02-22T01:59:34.410Z,16.65
2018-02-22T02:00:08.333Z,16.48
2018-02-22T02:00:42.252Z,16.42
2018-02-22T02:01:16.481Z,16.52
2018-02-22T02:01:50.415Z,16.02
2018-02-22T02:02:24.530Z,16.83
2018-02-22T02:02:58.616Z,16.17
2018-02-22T02:03:32.714Z,15.52
2018-02-22T02:04:06.752Z,15.50
2018-02-22T02:04:40.666Z,15.68
2018-02-22T02:05:14.716Z,15.35
2018-02-22T02:05:48.658Z,15.90
2018-02-22T02:06:22.922Z,16.15
2018-02-22T02:06:57.008Z,16.58
2018-02-22T02:07:30.930Z,16.20
2018-02-22T02:08:04.853Z,16.05
2018-02-22T02:08:38.777Z,16.50
2018-02-22T02:09:12.685Z,16.70
2018-02-22T02:09:46.715Z,16.00
2018-02-22T02:10:20.649Z,15.63
2018-02-22T02:10:54.886Z,16.83
2018-02-22T02:11:28.817Z,16.62
2018-02-22T02:12:02.752Z,15.80
2018-02-22T02:12:36.784Z,16.37
2018-02-22T02:13:10.699Z,16.50
2018-02-22T02:13:44.629Z,17.20
2018-02-22T02:14:18.727Z,16.83
2018-02-22T02:14:52.660Z,13.88
2018-02-22T02:15:26.624Z,15.65
2018-02-22T02:16:00.546Z,15.13
2018-02-22T02:16:34.531Z,15.77
2018-02-22T02:17:08.669Z,15.75
2018-02-22T02:17:42.581Z,14.32
2018-02-22T02:18:16.510Z,15.63
2018-02-22T02:18:50.452Z,15.85
2018-02-22T02:19:24.365Z,15.70
2018-02-22T02:19:58.384Z,18.15
2018-02-22T02:20:32.645Z,15.90
2018-02-22T02:21:06.552Z,17.35
2018-02-22T02:21:40.842Z,15.40
2018-02-22T02:22:14.783Z,15.30
2018-02-22T02:22:48.697Z,15.55
2018-02-22T02:23:22.605Z,17.83
2018-02-22T02:23:56.540Z,13.93
2018-02-22T02:24:30.455Z,16.73
2018-02-22T02:25:04.673Z,16.40
2018-02-22T02:25:38.585Z,15.73
2018-02-22T02:26:12.518Z,15.75
2018-02-22T02:26:46.424Z,17.10
2018-02-22T02:27:20.395Z,15.68
2018-02-22T02:28:00.090Z,17.08
2018-02-22T02:28:34.038Z,15.52
2018-02-22T02:29:07.972Z,15.80
2018-02-22T02:29:42.081Z,16.02
2018-02-22T02:30:16.026Z,15.43
2018-02-22T02:30:49.965Z,17.12
2018-02-22T02:31:23.893Z,15.98
2018-02-22T02:31:57.854Z,17.00
2018-02-22T02:32:31.784Z,16.50
2018-02-22T02:33:05.884Z,15.85
2018-02-22T02:33:39.969Z,16.60
2018-02-22T02:34:13.888Z,16.83
2018-02-22T02:34:47.850Z,16.10
2018-02-22T02:35:21.800Z,16.95
2018-02-22T02:35:55.745Z,17.62
2018-02-22T02:36:29.666Z,15.77
2018-02-22T02:37:03.585Z,14.93
2018-02-22T02:37:37.518Z,16.40
2018-02-22T02:38:11.564Z,15.77
2018-02-22T02:38:45.495Z,14.38
2018-02-22T02:39:19.480Z,15.70
2018-02-22T02:39:53.541Z,15.45
2018-02-22T02:40:27.621Z,15.85
2018-02-22T02:41:01.550Z,15.73
2018-02-22T02:41:35.676Z,15.52
2018-02-22T02:42:09.629Z,14.80
2018-02-22T02:42:43.727Z,16.70
2018-02-22T02:43:17.717Z,14.75
2018-02-22T02:43:51.627Z,15.45
2018-02-22T02:44:25.747Z,17.90
2018-02-22T02:44:59.765Z,15.77
2018-02-22T02:45:33.708Z,16.10
2018-02-22T02:46:07.763Z,16.02
2018-02-22T02:46:41.809Z,16.48
2018-02-22T02:47:15.826Z,15.98
2018-02-22T02:47:49.755Z,16.77
2018-02-22T02:48:23.684Z,17.23
2018-02-22T02:48:57.588Z,15.38
2018-02-22T02:49:31.568Z,15.63
2018-02-22T02:50:05.509Z,15.88
2018-02-22T02:50:39.588Z,15.85
2018-02-22T02:51:13.531Z,16.12
2018-02-22T02:51:47.485Z,15.77
2018-02-22T02:52:21.424Z,16.17
2018-02-22T02:52:55.350Z,17.00
2018-02-22T02:53:29.296Z,17.15
2018-02-22T02:54:03.293Z,16.30
2018-02-22T02:54:37.426Z,15.07
2018-02-22T02:55:11.361Z,16.65
2018-02-22T02:55:45.282Z,16.15
2018-02-22T02:56:19.196Z,15.75
2018-02-22T02:56:53.136Z,16.65
2018-02-22T02:57:27.031Z,16.40
2018-02-22T02:58:01.071Z,15.48
2018-02-22T02:58:35.193Z,16.00
2018-02-22T02:59:09.143Z,15.82
2018-02-22T02:59:43.098Z,16.10
2018-02-22T03:00:17.046Z,16.00
2018-02-22T03:00:50.970Z,16.50
2018-02-22T03:01:24.884Z,16.60
2018-02-22T03:01:58.885Z,16.62
2018-02-22T03:02:33.031Z,17.98
2018-02-22T03:03:07.072Z,16.45
2018-02-22T03:03:41.052Z,16.58
2018-02-22T03:04:15.043Z,17.30
2018-02-22T03:04:49.329Z,16.80
2018-02-22T03:05:23.480Z,16.70
2018-02-22T03:05:57.435Z,17.37
2018-02-22T03:06:31.374Z,17.55
2018-02-22T03:07:05.498Z,16.60
2018-02-22T03:07:39.549Z,16.73
2018-02-22T03:08:13.476Z,16.35
2018-02-22T03:08:47.426Z,15.68
2018-02-22T03:09:21.404Z,15.50
2018-02-22T03:09:55.353Z,16.42
2018-02-22T03:10:29.296Z,16.87
2018-02-22T03:11:03.320Z,16.02
2018-02-22T03:11:37.231Z,15.40
2018-02-22T03:12:11.169Z,15.32
2018-02-22T03:12:45.093Z,16.10
2018-02-22T03:13:19.052Z,16.62
2018-02-22T03:13:52.973Z,17.42
2018-02-22T03:14:26.896Z,17.20
2018-02-22T03:15:00.973Z,17.62
2018-02-22T03:15:34.934Z,16.87
2018-02-22T03:16:08.963Z,16.35
2018-02-22T03:16:42.882Z,16.10
2018-02-22T03:17:16.833Z,18.08
2018-02-22T03:17:50.744Z,17.33
2018-02-22T03:18:24.791Z,16.48
2018-02-22T03:18:58.774Z,15.57
2018-02-22T03:19:32.870Z,15.80
2018-02-22T03:20:07.024Z,15.60
2018-02-22T03:20:40.965Z,16.62
2018-02-22T03:21:14.869Z,14.55
2018-02-22T03:21:48.797Z,16.45
2018-02-22T03:22:22.745Z,17.80
2018-02-22T03:22:56.858Z,16.80
2018-02-22T03:23:30.848Z,17.05
2018-02-22T03:24:04.791Z,17.85
2018-02-22T03:24:38.752Z,16.95
2018-02-22T03:25:12.661Z,16.33
2018-02-22T03:25:46.673Z,17.30
2018-02-22T03:26:20.605Z,16.75
2018-02-22T03:26:54.548Z,17.08
2018-02-22T03:27:28.775Z,17.75
2018-02-22T03:28:02.717Z,15.98
2018-02-22T03:28:36.648Z,16.75
2018-02-22T03:29:10.595Z,18.08
2018-02-22T03:29:44.514Z,16.37
2018-02-22T03:30:18.968Z,16.95
2018-02-22T03:30:52.914Z,15.07
2018-02-22T03:31:27.180Z,16.67
2018-02-22T03:32:01.111Z,17.60
2018-02-22T03:32:35.032Z,16.77
2018-02-22T03:33:09.135Z,17.20
2018-02-22T03:33:43.204Z,17.30
2018-02-22T03:34:17.132Z,16.77
2018-02-22T03:34:51.155Z,16.10
2018-02-22T03:35:25.085Z,17.15
2018-02-22T03:35:58.995Z,17.00
2018-02-22T03:36:32.955Z,17.23
2018-02-22T03:37:06.886Z,18.00
2018-02-22T03:37:40.866Z,15.80
2018-02-22T03:38:14.902Z,16.12
2018-02-22T03:38:49.105Z,15.75
2018-02-22T03:39:23.032Z,18.23
2018-02-22T03:39:57.004Z,16.27
2018-02-22T03:40:30.981Z,17.70
2018-02-22T03:41:04.971Z,18.08
2018-02-22T03:41:39.104Z,17.17
2018-02-22T03:42:13.055Z,17.27
2018-02-22T03:42:46.976Z,15.45
2018-02-22T03:43:20.921Z,18.15
2018-02-22T03:43:54.919Z,17.52
2018-02-22T03:44:28.852Z,17.80
2018-02-22T03:45:02.785Z,15.57
2018-02-22T03:45:36.709Z,16.10
2018-02-22T03:46:10.683Z,17.30
2018-02-22T03:46:44.632Z,16.85
2018-02-22T03:47:18.550Z,16.50
2018-02-22T03:47:52.505Z,17.00
2018-02-22T03:48:26.439Z,16.00
2018-02-22T03:49:00.421Z,16.37
2018-02-22T03:49:34.349Z,17.20
2018-02-22T03:50:08.478Z,16.87
2018-02-22T03:50:42.745Z,17.83
2018-02-22T03:51:16.650Z,17.10
2018-02-22T03:51:50.777Z,17.08
2018-02-22T03:52:24.920Z,17.65
2018-02-22T03:52:58.879Z,16.83
2018-02-22T03:53:32.916Z,17.90
2018-02-22T03:54:06.839Z,16.65
2018-02-22T03:54:40.820Z,17.15
2018-02-22T03:55:14.729Z,17.73
2018-02-22T03:55:48.646Z,17.35
2018-02-22T03:56:22.565Z,16.25
2018-02-22T03:56:56.504Z,16.40
2018-02-22T03:57:30.440Z,17.10
2018-02-22T03:58:04.360Z,18.02
2018-02-22T03:58:38.281Z,16.95
2018-02-22T03:59:12.389Z,17.02
2018-02-22T03:59:46.441Z,17.62
2018-02-22T04:00:20.387Z,17.10
2018-02-22T04:00:54.337Z,17.08
2018-02-22T04:01:28.256Z,17.50
2018-02-22T04:02:02.344Z,18.02
2018-02-22T04:02:36.263Z,16.73
2018-02-22T04:03:10.204Z,16.80
2018-02-22T04:03:44.451Z,15.95
2018-02-22T04:04:18.548Z,17.02
2018-02-22T04:04:52.568Z,17.23
2018-02-22T04:05:26.520Z,17.10
2018-02-22T04:06:00.517Z,16.00
2018-02-22T04:06:34.436Z,15.30
2018-02-22T04:07:08.349Z,17.85
2018-02-22T04:07:42.456Z,16.75
2018-02-22T04:08:16.422Z,16.92
2018-02-22T04:08:50.372Z,15.18
2018-02-22T04:09:24.396Z,17.25
2018-02-22T04:09:58.325Z,17.48
2018-02-22T04:10:32.343Z,16.37
2018-02-22T04:11:06.495Z,16.37
2018-02-22T04:11:40.575Z,16.45
2018-02-22T04:12:14.480Z,16.45
2018-02-22T04:12:48.421Z,17.55
2018-02-22T04:13:22.332Z,18.40
2018-02-22T04:13:56.291Z,19.17
2018-02-22T04:14:30.495Z,17.45
2018-02-22T04:15:04.415Z,18.25
2018-02-22T04:15:38.364Z,17.27
2018-02-22T04:16:12.431Z,18.40
2018-02-22T04:16:46.767Z,17.58
2018-02-22T04:17:20.734Z,18.08
2018-02-22T04:17:54.736Z,16.90
2018-02-22T04:18:28.809Z,17.50
2018-02-22T04:19:02.728Z,16.77
2018-02-22T04:19:36.696Z,17.67
2018-02-22T04:20:10.620Z,17.02
2018-02-22T04:20:44.541Z,16.33
2018-02-22T04:21:18.469Z,18.75
2018-02-22T04:21:52.530Z,17.92
2018-02-22T04:22:26.436Z,17.55
2018-02-22T04:23:00.454Z,16.70
2018-02-22T04:23:34.401Z,17.60
2018-02-22T04:24:08.313Z,17.20
2018-02-22T04:24:42.422Z,17.70
2018-02-22T04:25:16.339Z,18.05
2018-02-22T04:25:50.502Z,17.50
2018-02-22T04:26:24.458Z,17.17
2018-02-22T04:26:58.362Z,16.60
2018-02-22T04:27:32.323Z,17.48
2018-02-22T04:28:06.236Z,17.55
2018-02-22T04:28:40.147Z,16.83
2018-02-22T04:29:14.300Z,17.10
2018-02-22T04:29:48.247Z,18.15
2018-02-22T04:30:22.206Z,17.00
2018-02-22T04:30:56.116Z,16.85
2018-02-22T04:31:30.134Z,17.27
2018-02-22T04:32:04.089Z,17.60
2018-02-22T04:32:38.006Z,18.40
2018-02-22T04:33:11.935Z,16.83
2018-02-22T04:33:45.853Z,16.20
2018-02-22T04:34:20.039Z,16.98
2018-02-22T04:34:53.950Z,16.87
2018-02-22T04:35:28.542Z,17.55
2018-02-22T04:36:03.424Z,16.17
2018-02-22T04:36:39.711Z,17.15
2018-02-22T04:37:14.792Z,17.25
2018-02-22T04:37:48.824Z,17.12
2018-02-22T04:38:22.805Z,19.40
2018-02-22T04:38:56.713Z,17.52
2018-02-22T04:39:30.616Z,16.92
2018-02-22T04:40:04.543Z,18.48
2018-02-22T04:40:38.451Z,16.73
2018-02-22T04:41:12.366Z,17.33
2018-02-22T04:41:46.316Z,18.75
2018-02-22T04:42:20.330Z,18.10
2018-02-22T04:42:54.241Z,17.65
2018-02-22T04:43:28.158Z,17.20
2018-02-22T04:44:02.075Z,19.02
2018-02-22T04:44:36.010Z,18.42
2018-02-22T04:45:10.026Z,18.70
2018-02-22T04:45:44.109Z,18.50
2018-02-22T04:46:18.200Z,17.75
2018-02-22T04:46:52.134Z,19.77
2018-02-22T04:47:26.064Z,17.50
2018-02-22T04:48:00.237Z,17.12
2018-02-22T04:48:34.296Z,17.33
2018-02-22T04:49:08.280Z,17.98
2018-02-22T04:49:42.379Z,19.92
2018-02-22T04:50:16.638Z,18.52
2018-02-22T04:50:50.675Z,19.65
2018-02-22T04:51:24.731Z,19.60
2018-02-22T04:51:58.783Z,19.02
2018-02-22T04:52:32.779Z,18.10
2018-02-22T04:53:06.783Z,19.70
2018-02-22T04:53:40.749Z,18.23
2018-02-22T04:54:14.724Z,18.92
2018-02-22T04:54:48.677Z,19.20
2018-02-22T04:55:22.625Z,18.60
2018-02-22T04:55:56.660Z,19.85
2018-02-22T04:56:30.581Z,17.98
2018-02-22T04:57:04.621Z,19.35
2018-02-22T04:57:38.571Z,18.80
2018-02-22T04:58:12.524Z,16.95
2018-02-22T04:58:47.100Z,19.15
2018-02-22T04:59:21.013Z,17.48
2018-02-22T04:59:54.980Z,19.02
2018-02-22T05:00:29.081Z,19.67
2018-02-22T05:01:03.058Z,18.48
2018-02-22T05:01:36.988Z,19.20
2018-02-22T05:02:10.904Z,17.83
2018-02-22T05:02:44.957Z,18.67
2018-02-22T05:03:18.895Z,19.10
2018-02-22T05:03:52.894Z,19.42
2018-02-22T05:04:26.937Z,19.05
2018-02-22T05:05:00.955Z,17.98
2018-02-22T05:05:34.902Z,18.15
2018-02-22T05:06:08.836Z,19.30
2018-02-22T05:06:42.773Z,19.15
2018-02-22T05:07:16.721Z,19.35
2018-02-22T05:07:50.641Z,20.35
2018-02-22T05:08:24.717Z,22.27
2018-02-22T05:08:58.768Z,23.80
2018-02-22T05:09:32.990Z,20.85
2018-02-22T05:10:07.040Z,22.15
2018-02-22T05:10:40.996Z,18.73
2018-02-22T05:11:14.994Z,22.33
2018-02-22T05:11:49.003Z,23.10
2018-02-22T05:12:22.996Z,23.05
2018-02-22T05:12:56.973Z,24.20
2018-02-22T05:13:30.998Z,21.80
2018-02-22T05:14:05.148Z,24.33
2018-02-22T05:14:39.037Z,24.25
2018-02-22T05:15:12.896Z,23.87
2018-02-22T05:15:46.803Z,23.08
2018-02-22T05:16:20.865Z,21.70
2018-02-22T05:16:54.742Z,22.35
2018-02-22T05:17:28.638Z,22.58
2018-02-22T05:18:02.534Z,21.83
2018-02-22T05:18:36.732Z,22.05
2018-02-22T05:19:10.589Z,19.92
2018-02-22T05:19:44.534Z,19.55
2018-02-22T05:20:18.489Z,21.12
2018-02-22T05:20:52.406Z,21.05
2018-02-22T05:21:26.264Z,20.67
2018-02-22T05:22:00.300Z,20.02
2018-02-22T05:22:34.509Z,20.17
2018-02-22T05:23:08.366Z,19.83
2018-02-22T05:23:42.300Z,21.33
2018-02-22T05:24:16.292Z,19.48
2018-02-22T05:24:50.177Z,20.70
2018-02-22T05:25:24.038Z,22.55
2018-02-22T05:25:58.006Z,19.98
2018-02-22T05:26:31.968Z,21.90
2018-02-22T05:27:05.974Z,24.08
2018-02-22T05:27:39.935Z,22.13
2018-02-22T05:28:13.913Z,21.42
2018-02-22T05:28:47.776Z,21.30
2018-02-22T05:29:21.826Z,21.70
2018-02-22T05:29:55.712Z,22.58
2018-02-22T05:30:29.701Z,20.92
2018-02-22T05:31:03.720Z,23.02
2018-02-22T05:31:37.577Z,20.88
2018-02-22T05:32:11.453Z,22.00
2018-02-22T05:32:45.436Z,22.33
2018-02-22T05:33:19.305Z,20.42
2018-02-22T05:33:53.387Z,22.90
2018-02-22T05:34:27.596Z,21.25
2018-02-22T05:35:01.467Z,21.42
2018-02-22T05:35:35.433Z,21.12
2018-02-22T05:36:09.467Z,21.67
2018-02-22T05:36:43.470Z,20.20
2018-02-22T05:37:17.421Z,19.30
2018-02-22T05:37:51.427Z,20.67
2018-02-22T05:38:25.292Z,21.05
2018-02-22T05:38:59.415Z,22.20
2018-02-22T05:39:33.462Z,19.80
2018-02-22T05:40:07.337Z,21.12
2018-02-22T05:40:41.208Z,21.17
2018-02-22T05:41:15.200Z,20.75
2018-02-22T05:41:49.424Z,21.73
2018-02-22T05:42:23.448Z,19.55
2018-02-22T05:42:57.294Z,20.73
2018-02-22T05:43:31.401Z,20.70
2018-02-22T05:44:05.696Z,20.35
2018-02-22T05:44:39.579Z,21.83
2018-02-22T05:45:13.486Z,20.02
2018-02-22T05:45:47.491Z,21.45
2018-02-22T05:46:21.438Z,21.60
2018-02-22T05:46:55.315Z,21.48
2018-02-22T05:47:29.212Z,21.92
2018-02-22T05:48:03.093Z,19.48
2018-02-22T05:48:37.020Z,21.73
2018-02-22T05:49:11.141Z,20.88
2018-02-22T05:49:45.007Z,21.35
2018-02-22T05:50:19.373Z,21.50
2018-02-22T05:50:53.279Z,22.52
2018-02-22T05:51:27.249Z,21.98
2018-02-22T05:52:01.179Z,20.98
2018-02-22T05:52:35.104Z,20.42
2018-02-22T05:53:09.053Z,21.95
2018-02-22T05:53:42.955Z,21.00
2018-02-22T05:54:16.977Z,21.02
2018-02-22T05:54:50.844Z,18.98
2018-02-22T05:55:24.714Z,21.52
2018-02-22T05:55:58.618Z,20.25
2018-02-22T05:56:32.502Z,19.95
2018-02-22T05:57:06.361Z,21.62
2018-02-22T05:57:40.274Z,21.80
2018-02-22T05:58:14.161Z,20.20
2018-02-22T05:58:48.028Z,20.98
2018-02-22T05:59:22.043Z,20.88
2018-02-22T05:59:55.953Z,20.20
2018-02-22T06:00:29.847Z,20.17
2018-02-22T06:01:03.701Z,21.10
2018-02-22T06:01:37.631Z,20.58
2018-02-22T06:02:11.864Z,20.00
2018-02-22T06:02:45.890Z,21.23
2018-02-22T06:03:19.779Z,21.58
2018-02-22T06:03:53.988Z,19.67
2018-02-22T06:04:27.880Z,21.50
2018-02-22T06:05:01.745Z,20.15
2018-02-22T06:05:35.608Z,20.37
2018-02-22T06:06:10.055Z,21.02
2018-02-22T06:06:43.993Z,21.33
2018-02-22T06:07:18.628Z,21.42
2018-02-22T06:07:52.823Z,20.67
2018-02-22T06:08:26.699Z,21.52
2018-02-22T06:09:00.695Z,20.17
2018-02-22T06:09:34.782Z,22.42
2018-02-22T06:10:08.681Z,21.62
2018-02-22T06:10:42.554Z,23.05
2018-02-22T06:11:16.597Z,19.55
2018-02-22T06:11:50.768Z,21.30
2018-02-22T06:12:24.783Z,21.85
2018-02-22T06:12:58.732Z,22.05
2018-02-22T06:13:32.623Z,22.15
2018-02-22T06:14:06.509Z,23.08
2018-02-22T06:14:40.635Z,22.52
2018-02-22T06:15:14.532Z,23.55
2018-02-22T06:15:48.491Z,22.37
2018-02-22T06:16:22.406Z,21.52
2018-02-22T06:16:56.315Z,24.30
2018-02-22T06:17:30.298Z,23.70
2018-02-22T06:18:04.347Z,23.95
2018-02-22T06:18:38.220Z,25.45
2018-02-22T06:19:12.160Z,24.05
2018-02-22T06:19:46.027Z,24.48
2018-02-22T06:20:20.229Z,23.87
2018-02-22T06:20:54.122Z,24.00
2018-02-22T06:21:28.110Z,23.50
2018-02-22T06:22:02.038Z,23.38
2018-02-22T06:22:35.911Z,24.05
2018-02-22T06:23:09.801Z,24.00
2018-02-22T06:23:43.734Z,23.77
2018-02-22T06:24:17.605Z,24.20
2018-02-22T06:24:52.306Z,24.63
2018-02-22T06:25:26.401Z,24.50
2018-02-22T06:26:00.278Z,26.60
2018-02-22T06:26:34.294Z,25.70
2018-02-22T06:27:08.166Z,25.10
2018-02-22T06:27:42.027Z,23.05
2018-02-22T06:28:15.886Z,23.27
2018-02-22T06:28:49.801Z,23.02
2018-02-22T06:29:23.690Z,24.65
2018-02-22T06:29:57.583Z,23.08
2018-02-22T06:30:31.444Z,25.42
2018-02-22T06:31:05.371Z,26.87
2018-02-22T06:31:39.252Z,25.52
2018-02-22T06:32:13.137Z,24.98
2018-02-22T06:32:47.028Z,26.17
2018-02-22T06:33:20.897Z,25.77
2018-02-22T06:33:54.891Z,23.75
2018-02-22T06:34:28.842Z,24.12
2018-02-22T06:35:02.838Z,23.45
2018-02-22T06:35:36.721Z,23.42
2018-02-22T06:36:10.772Z,22.70
2018-02-22T06:36:44.665Z,26.33
2018-02-22T06:37:18.602Z,24.23
2018-02-22T06:37:52.614Z,25.48
2018-02-22T06:38:26.738Z,23.45
2018-02-22T06:39:00.617Z,24.25
2018-02-22T06:39:34.515Z,23.45
2018-02-22T06:40:08.515Z,23.23
2018-02-22T06:40:42.514Z,24.10
2018-02-22T06:41:16.469Z,22.42
2018-02-22T06:41:50.422Z,24.65
2018-02-22T06:42:24.386Z,24.12
2018-02-22T06:42:58.384Z,22.70
2018-02-22T06:43:32.266Z,22.27
2018-02-22T06:44:06.138Z,23.62
2018-02-22T06:44:40.072Z,22.92
2018-02-22T06:45:13.982Z,24.45
2018-02-22T06:45:47.914Z,22.30
2018-02-22T06:46:21.965Z,24.10
2018-02-22T06:46:56.074Z,22.92
2018-02-22T06:47:29.985Z,23.12
2018-02-22T06:48:03.859Z,23.27
2018-02-22T06:48:37.777Z,22.70
2018-02-22T06:49:11.740Z,21.27
2018-02-22T06:49:45.603Z,22.55
2018-02-22T06:50:19.486Z,23.48
2018-02-22T06:50:53.382Z,22.73
2018-02-22T06:51:27.308Z,25.12
2018-02-22T06:52:01.213Z,25.20
2018-02-22T06:52:35.166Z,23.30
2018-02-22T06:53:09.072Z,22.55
2018-02-22T06:53:43.114Z,22.13
2018-02-22T06:54:17.118Z,23.40
2018-02-22T06:54:50.992Z,24.70
2018-02-22T06:55:24.897Z,25.40
2018-02-22T06:55:58.753Z,23.10
2018-02-22T06:56:32.696Z,24.63
2018-02-22T06:57:06.572Z,23.12
2018-02-22T06:57:40.545Z,23.87
2018-02-22T06:58:14.557Z,25.37
2018-02-22T06:58:48.407Z,23.17
2018-02-22T06:59:22.456Z,22.00
2018-02-22T06:59:56.335Z,21.83
2018-02-22T07:00:30.670Z,21.80
2018-02-22T07:01:04.879Z,23.58
2018-02-22T07:01:38.733Z,23.50
2018-02-22T07:02:13.409Z,23.50
2018-02-22T07:02:47.418Z,24.92
2018-02-22T07:03:21.542Z,22.60
2018-02-22T07:03:55.496Z,22.42
2018-02-22T07:04:29.432Z,22.52
2018-02-22T07:05:03.932Z,25.42
2018-02-22T07:05:37.956Z,23.02
2018-02-22T07:06:11.937Z,23.77
2018-02-22T07:06:45.820Z,23.10
2018-02-22T07:07:19.796Z,23.77
2018-02-22T07:07:53.656Z,23.85
2018-02-22T07:08:27.534Z,24.33
2018-02-22T07:09:01.448Z,24.30
2018-02-22T07:09:35.332Z,25.45
2018-02-22T07:10:09.211Z,24.37
2018-02-22T07:10:43.278Z,25.37
2018-02-22T07:11:17.185Z,27.13
2018-02-22T07:11:51.245Z,24.58
2018-02-22T07:12:25.160Z,25.80
2018-02-22T07:12:59.140Z,25.48
2018-02-22T07:13:33.160Z,27.05
2018-02-22T07:14:07.032Z,27.02
2018-02-22T07:14:41.137Z,26.50
2018-02-22T07:15:15.091Z,26.77
2018-02-22T07:15:49.135Z,25.55
2018-02-22T07:16:23.036Z,25.35
2018-02-22T07:16:56.993Z,24.85
2018-02-22T07:17:30.991Z,26.15
2018-02-22T07:18:05.119Z,24.30